Time;durP1;ratioP1;P1;durP2;ratioP2;P2;SDS_P1;SDS_P2;PMS_P1;PMS_P2;Temp;Humidity;BMP_temperature;BMP_pressure;BME280_temperature;BME280_humidity;BME280_pressure;Samples;Min_cycle;Max_cycle;Signal;HPM_P1;HPM_P2
2021/12/15 00:02:11;;;;;;;102.28;79.10;;;8.70;99.90;;;;;;6156176;23;20130;-84
2021/12/15 00:04:37;;;;;;;97.32;68.70;;;8.70;99.90;;;;;;6157574;22;20153;-84
2021/12/15 00:07:03;;;;;;;98.20;76.17;;;8.70;99.90;;;;;;6157555;23;20166;-84
2021/12/15 00:09:32;;;;;;;102.07;74.38;;;8.80;99.90;;;;;;6157653;23;20706;-83
2021/12/15 00:12:03;;;;;;;103.72;91.90;;;8.80;99.90;;;;;;6132581;23;20205;-84
2021/12/15 00:14:42;;;;;;;100.53;77.38;;;8.70;99.90;;;;;;6158575;23;20131;-84
2021/12/15 00:17:08;;;;;;;104.80;88.80;;;8.80;99.90;;;;;;6158671;23;20165;-84
2021/12/15 00:19:34;;;;;;;98.70;78.18;;;8.80;99.90;;;;;;6158015;23;20138;-84
2021/12/15 00:22:04;;;;;;;99.55;74.78;;;8.80;99.90;;;;;;6132757;23;20153;-84
2021/12/15 00:24:31;;;;;;;101.70;75.22;;;8.80;99.90;;;;;;6158203;23;20187;-84
2021/12/15 00:26:59;;;;;;;98.40;76.20;;;8.70;99.90;;;;;;6158328;23;20162;-84
2021/12/15 00:29:25;;;;;;;103.25;82.15;;;8.80;99.90;;;;;;6158681;23;20145;-84
2021/12/15 00:31:52;;;;;;;97.87;72.20;;;8.80;99.90;;;;;;6133319;23;20153;-84
2021/12/15 00:34:21;;;;;;;95.88;68.28;;;8.80;99.90;;;;;;6157602;22;20195;-84
2021/12/15 00:36:47;;;;;;;105.28;90.72;;;8.80;99.90;;;;;;6157383;23;20219;-84
2021/12/15 00:39:20;;;;;;;97.38;74.93;;;8.80;99.90;;;;;;6158424;23;20146;-84
2021/12/15 00:41:53;;;;;;;96.65;72.75;;;8.80;99.90;;;;;;6131659;23;20165;-84
2021/12/15 00:44:19;;;;;;;95.32;71.88;;;8.90;99.90;;;;;;6157842;23;20559;-85
2021/12/15 00:46:51;;;;;;;98.32;79.75;;;8.90;99.90;;;;;;6157904;23;20541;-84
2021/12/15 00:49:22;;;;;;;94.93;71.10;;;8.90;99.90;;;;;;6131530;23;20146;-84
2021/12/15 00:51:48;;;;;;;96.38;76.68;;;9.00;99.90;;;;;;6132554;23;20224;-85
2021/12/15 00:54:14;;;;;;;94.90;71.40;;;9.00;99.90;;;;;;6157734;22;20211;-85
2021/12/15 00:56:46;;;;;;;93.80;72.45;;;9.00;99.90;;;;;;6131598;23;20181;-84
2021/12/15 00:59:13;;;;;;;92.05;68.70;;;9.10;99.90;;;;;;6158629;23;20130;-85
2021/12/15 01:01:42;;;;;;;97.63;75.57;;;9.10;99.90;;;;;;6131820;23;20150;-84
2021/12/15 01:04:13;;;;;;;95.47;69.32;;;9.20;99.90;;;;;;6131831;23;20184;-84
2021/12/15 01:06:41;;;;;;;93.22;70.07;;;9.20;99.90;;;;;;6157804;23;20162;-84
2021/12/15 01:09:12;;;;;;;90.80;62.78;;;9.30;99.90;;;;;;6157831;23;20538;-85
2021/12/15 01:20:00;;;;;;;90.30;65.78;;;9.50;99.90;;;;;;6158641;23;20156;-84
2021/12/15 01:22:29;;;;;;;92.18;72.22;;;9.50;99.90;;;;;;6131688;23;20181;-84
2021/12/15 01:24:59;;;;;;;91.03;64.50;;;9.40;99.90;;;;;;6131843;23;20657;-85
2021/12/15 01:27:25;;;;;;;92.25;70.65;;;9.40;99.90;;;;;;6156128;23;20158;-84
2021/12/15 01:29:54;;;;;;;90.95;68.72;;;9.50;99.90;;;;;;6130132;23;20185;-85
2021/12/15 01:32:20;;;;;;;97.38;86.65;;;9.50;99.90;;;;;;6130210;23;20146;-84
2021/12/15 01:34:46;;;;;;;100.20;88.60;;;9.50;99.90;;;;;;6156430;23;20135;-85
2021/12/15 01:37:12;;;;;;;100.63;89.77;;;9.50;99.90;;;;;;6156766;23;20201;-85
2021/12/15 01:39:41;;;;;;;99.95;88.55;;;9.50;99.90;;;;;;6156662;23;20153;-85
2021/12/15 01:42:07;;;;;;;155.90;142.55;;;9.50;99.90;;;;;;6156637;23;20146;-85
2021/12/15 01:47:17;;;;;;;134.13;121.88;;;9.50;99.90;;;;;;6156462;23;20172;-85
2021/12/15 01:49:51;;;;;;;105.63;94.73;;;9.40;99.90;;;;;;6157501;23;20146;-85
2021/12/15 01:52:18;;;;;;;104.88;92.15;;;9.50;99.90;;;;;;6156513;23;20672;-85
2021/12/15 01:54:50;;;;;;;143.80;131.32;;;9.50;99.90;;;;;;6156325;23;20141;-84
2021/12/15 01:57:17;;;;;;;128.00;115.53;;;9.50;99.90;;;;;;6130439;23;20181;-85
2021/12/15 01:59:45;;;;;;;145.77;133.18;;;9.40;99.90;;;;;;6155596;23;20590;-84
2021/12/15 02:02:11;;;;;;;109.45;98.15;;;9.40;99.90;;;;;;6130174;23;20146;-85
2021/12/15 02:04:40;;;;;;;94.93;78.85;;;9.40;99.90;;;;;;6131384;23;20150;-84
2021/12/15 02:07:13;;;;;;;98.05;79.10;;;9.40;99.90;;;;;;6132058;23;20169;-84
2021/12/15 02:12:04;;;;;;;87.47;59.17;;;9.30;99.90;;;;;;6159726;22;20599;-85
2021/12/15 02:14:31;;;;;;;88.28;64.47;;;9.30;99.90;;;;;;6132853;23;20460;-85
2021/12/15 02:16:58;;;;;;;90.88;69.13;;;9.40;99.90;;;;;;6158758;23;20185;-84
2021/12/15 02:19:26;;;;;;;94.00;76.55;;;9.30;99.90;;;;;;6132744;23;20258;-84
2021/12/15 02:21:53;;;;;;;91.88;70.20;;;9.30;99.90;;;;;;6132392;23;20153;-84
2021/12/15 02:24:19;;;;;;;100.00;89.13;;;9.30;99.90;;;;;;6158581;23;20146;-84
2021/12/15 02:26:50;;;;;;;101.90;91.00;;;9.40;99.90;;;;;;6132530;23;20181;-84
2021/12/15 02:29:19;;;;;;;94.78;80.07;;;9.30;99.90;;;;;;6158611;23;20200;-84
2021/12/15 02:39:33;;;;;;;95.70;80.82;;;9.30;99.90;;;;;;6158910;23;20164;-84
2021/12/15 02:41:59;;;;;;;138.05;125.50;;;9.30;99.90;;;;;;6158300;23;20207;-85
2021/12/15 02:44:26;;;;;;;91.28;70.28;;;9.40;99.90;;;;;;6132129;23;20660;-85
2021/12/15 02:46:53;;;;;;;98.72;79.10;;;9.30;99.90;;;;;;6158398;23;20166;-85
2021/12/15 02:49:29;;;;;;;89.10;65.40;;;9.20;99.90;;;;;;6158829;23;20142;-84
2021/12/15 02:51:58;;;;;;;102.55;90.25;;;9.20;99.90;;;;;;6158896;23;20130;-84
2021/12/15 02:54:24;;;;;;;108.72;97.53;;;9.30;99.90;;;;;;6158271;23;20550;-84
2021/12/15 02:56:53;;;;;;;128.68;116.15;;;9.30;99.90;;;;;;6158258;23;20553;-85
2021/12/15 02:59:26;;;;;;;165.07;151.32;;;9.30;99.90;;;;;;6158377;23;20138;-84
2021/12/15 03:04:39;;;;;;;137.98;125.53;;;9.40;99.90;;;;;;6159232;23;20168;-85
2021/12/15 03:07:24;;;;;;;130.38;118.40;;;9.40;99.90;;;;;;6132125;23;20635;-84
2021/12/15 03:15:21;;;;;;;156.02;142.90;;;9.40;99.90;;;;;;6158286;23;20137;-84
2021/12/15 03:17:59;;;;;;;144.70;132.30;;;9.40;99.90;;;;;;6132375;23;20177;-84
2021/12/15 03:20:31;;;;;;;126.63;114.75;;;9.30;99.90;;;;;;6159171;23;20122;-84
2021/12/15 03:22:57;;;;;;;170.60;157.25;;;9.40;99.90;;;;;;6130773;23;20595;-85
2021/12/15 03:25:25;;;;;;;143.57;131.20;;;9.40;99.90;;;;;;6156426;23;20189;-84
2021/12/15 03:33:55;;;;;;;93.13;74.10;;;9.40;99.90;;;;;;6156615;23;20141;-84
2021/12/15 03:36:36;;;;;;;128.75;116.97;;;9.40;99.90;;;;;;6155204;23;20238;-84
2021/12/15 03:39:06;;;;;;;139.32;127.15;;;9.30;99.90;;;;;;6156929;23;20578;-85
2021/12/15 03:41:32;;;;;;;126.70;114.95;;;9.30;99.90;;;;;;6156736;23;20153;-84
2021/12/15 03:43:58;;;;;;;97.37;86.20;;;9.30;99.90;;;;;;6156671;23;20480;-85
2021/12/15 03:46:24;;;;;;;92.93;73.33;;;9.40;99.90;;;;;;6130808;23;20398;-84
2021/12/15 03:48:50;;;;;;;89.33;63.83;;;9.40;99.90;;;;;;6157308;23;20146;-84
2021/12/15 03:51:16;;;;;;;83.83;46.57;;;9.40;99.90;;;;;;6130397;23;20374;-84
2021/12/15 03:53:46;;;;;;;90.40;59.60;;;9.50;99.90;;;;;;6157131;23;20165;-84
2021/12/15 03:56:14;;;;;;;97.75;86.55;;;9.40;99.90;;;;;;6131911;23;20235;-84
2021/12/15 03:58:47;;;;;;;121.88;108.93;;;9.40;99.90;;;;;;6157567;23;20164;-84
2021/12/15 04:01:19;;;;;;;140.95;128.18;;;9.40;99.90;;;;;;6158642;23;20129;-85
2021/12/15 04:03:48;;;;;;;125.82;113.53;;;9.40;99.90;;;;;;6158032;23;20123;-84
2021/12/15 04:06:25;;;;;;;154.30;141.07;;;9.40;99.90;;;;;;6157507;23;20166;-85
2021/12/15 04:08:52;;;;;;;126.57;114.72;;;9.30;99.90;;;;;;6157968;23;20130;-84
2021/12/15 04:11:20;;;;;;;139.40;127.15;;;9.30;99.90;;;;;;6157944;23;20142;-85
2021/12/15 04:13:47;;;;;;;127.07;115.03;;;9.30;99.90;;;;;;6158184;23;20146;-84
2021/12/15 04:16:41;;;;;;;135.57;123.45;;;9.20;99.90;;;;;;6158023;23;20170;-84
2021/12/15 04:19:10;;;;;;;133.35;121.45;;;9.20;99.90;;;;;;6158678;23;20224;-84
2021/12/15 04:21:38;;;;;;;137.93;125.60;;;9.20;99.90;;;;;;6158248;23;20135;-83
2021/12/15 04:24:04;;;;;;;89.45;66.70;;;9.20;99.90;;;;;;6132852;23;20168;-84
2021/12/15 04:26:30;;;;;;;95.30;83.03;;;9.10;99.90;;;;;;6158744;23;20527;-84
2021/12/15 04:28:56;;;;;;;118.43;107.00;;;9.10;99.90;;;;;;6131896;23;20154;-84
2021/12/15 04:31:25;;;;;;;113.53;102.33;;;9.10;99.90;;;;;;6132528;23;20161;-85
2021/12/15 04:33:56;;;;;;;92.80;71.10;;;9.10;99.90;;;;;;6158555;23;20142;-85
2021/12/15 04:36:29;;;;;;;96.50;80.20;;;9.00;99.90;;;;;;6157712;23;20569;-84
2021/12/15 04:38:57;;;;;;;111.55;100.18;;;9.10;99.90;;;;;;6158068;23;20133;-84
2021/12/15 04:41:25;;;;;;;102.20;91.05;;;9.10;99.90;;;;;;6157924;23;20200;-84
2021/12/15 04:43:57;;;;;;;102.13;91.22;;;9.10;99.90;;;;;;6131624;23;20150;-84
2021/12/15 04:46:39;;;;;;;116.38;104.95;;;9.10;99.90;;;;;;6130763;23;20174;-84
2021/12/15 04:49:07;;;;;;;134.63;122.43;;;9.20;99.90;;;;;;6158045;23;20182;-85
2021/12/15 04:51:36;;;;;;;125.75;113.85;;;9.20;99.90;;;;;;6132732;23;20154;-84
2021/12/15 05:25:16;;;;;;;;;;;;;;;;;;;;;
2021/12/15 05:51:16;;;;;;;92.13;74.45;;;9.30;99.90;;;;;;6147450;23;20197;-86
2021/12/15 06:10:56;;;;;;;;;;;;;;;;;;;;;
2021/12/15 07:44:13;;;;;;;115.95;104.50;;;9.10;99.90;;;;;;6065624;23;20490;-86
2021/12/15 07:47:35;;;;;;;112.90;101.10;;;9.10;99.90;;;;;;5984638;23;20171;-86
2021/12/15 07:54:19;;;;;;;94.90;79.00;;;9.10;99.90;;;;;;5871419;24;20225;-86
2021/12/15 08:00:45;;;;;;;;;;;;;;;;;;;;;
2021/12/15 08:07:09;;;;;;;97.43;71.18;;;9.20;99.90;;;;;;5878133;24;20181;-87
2021/12/15 08:17:34;;;;;;;88.90;60.92;;;9.20;99.90;;;;;;5956600;23;20200;-86
2021/12/15 08:20:29;;;;;;;89.40;54.97;;;9.20;99.90;;;;;;5867835;24;20208;-87
2021/12/15 08:24:05;;;;;;;98.53;85.65;;;9.20;99.90;;;;;;5889622;24;20178;-86
2021/12/15 08:26:22;;;;;;;;;;;;;;;;;;;;;
2021/12/15 08:28:58;;;;;;;124.00;111.85;;;9.00;99.90;;;;;;6096063;23;20234;-86
2021/12/15 08:31:33;;;;;;;111.75;100.40;;;9.00;99.90;;;;;;6091397;23;20198;-86
2021/12/15 08:34:28;;;;;;;99.22;86.28;;;9.00;99.90;;;;;;6067638;23;20154;-87
2021/12/15 08:36:54;;;;;;;105.72;94.63;;;9.00;99.90;;;;;;6094299;23;20195;-85
2021/12/15 08:40:01;;;;;;;;;;;;;;;;;;;;;
2021/12/15 08:42:37;;;;;;;132.43;119.63;;;9.00;99.90;;;;;;6090177;23;20656;-86
2021/12/15 08:45:20;;;;;;;;;;;;;;;;;;;;;
2021/12/15 08:47:52;;;;;;;109.57;97.60;;;9.10;99.90;;;;;;6090693;23;20254;-87
2021/12/15 08:51:10;;;;;;;112.55;100.38;;;9.10;99.90;;;;;;6079343;23;20184;-87
2021/12/15 08:53:45;;;;;;;126.22;113.20;;;9.10;99.90;;;;;;6089422;23;20149;-86
2021/12/15 08:56:26;;;;;;;122.38;109.95;;;9.10;99.90;;;;;;6151909;23;20546;-87
2021/12/15 09:03:19;;;;;;;;;;;;;;;;;;;;;
2021/12/15 09:13:32;;;;;;;;;;;;;;;;;;;;;
2021/12/15 09:20:46;;;;;;;;;;;;;;;;;;;;;
2021/12/15 09:23:47;;;;;;;98.40;58.45;;;9.40;99.90;;;;;;6145681;23;20563;-86
2021/12/15 09:30:04;;;;;;;90.70;56.88;;;9.50;99.90;;;;;;6172501;23;20141;-86
2021/12/15 09:33:14;;;;;;;90.18;55.58;;;9.60;99.90;;;;;;6158074;23;20141;-86
2021/12/15 09:45:20;;;;;;;88.07;56.05;;;9.80;99.90;;;;;;6126411;23;20249;-86
2021/12/15 10:25:22;;;;;;;;;;;;;;;;;;;;;
2021/12/15 10:28:28;;;;;;;86.65;53.70;;;10.40;99.90;;;;;;6204388;23;20207;-85
2021/12/15 10:34:26;;;;;;;97.53;71.63;;;10.40;99.90;;;;;;6152895;23;20602;-85
2021/12/15 10:38:01;;;;;;;88.57;57.63;;;10.60;99.90;;;;;;6152205;22;20170;-85
2021/12/15 10:41:19;;;;;;;80.63;38.38;;;10.60;99.90;;;;;;6183023;23;20153;-85
2021/12/15 10:44:09;;;;;;;84.45;46.70;;;10.60;99.90;;;;;;6184968;23;20191;-85
2021/12/15 10:47:23;;;;;;;;;;;;;;;;;;;;;
2021/12/15 10:50:05;;;;;;;76.15;22.92;;;10.70;99.90;;;;;;6184426;22;20228;-85
2021/12/15 10:52:32;;;;;;;89.20;60.25;;;10.80;99.90;;;;;;6147494;23;20185;-83
2021/12/15 10:55:15;;;;;;;80.90;39.40;;;10.60;99.90;;;;;;6102973;23;20159;-84
2021/12/15 10:57:48;;;;;;;77.53;33.17;;;10.50;99.90;;;;;;6128993;23;20202;-83
2021/12/15 11:00:25;;;;;;;75.75;30.15;;;10.60;99.90;;;;;;6102009;23;20139;-85
2021/12/15 11:03:02;;;;;;;84.63;52.70;;;10.60;99.90;;;;;;6130479;23;20125;-86
2021/12/15 11:05:28;;;;;;;78.93;37.40;;;10.50;99.90;;;;;;6133290;23;20552;-85
2021/12/15 11:08:08;;;;;;;75.43;27.80;;;10.50;99.90;;;;;;6128541;23;20153;-85
2021/12/15 11:10:40;;;;;;;73.25;22.02;;;10.60;99.90;;;;;;6128341;23;20363;-85
2021/12/15 11:13:15;;;;;;;74.28;25.23;;;10.70;99.90;;;;;;6102841;23;20170;-85
2021/12/15 11:15:49;;;;;;;75.03;22.33;;;10.70;99.90;;;;;;6128992;23;20188;-85
2021/12/15 11:18:23;;;;;;;75.07;22.13;;;10.70;99.90;;;;;;6102672;23;20205;-84
2021/12/15 11:21:01;;;;;;;74.70;26.95;;;10.70;99.90;;;;;;6128307;23;20575;-84
2021/12/15 11:23:29;;;;;;;76.25;30.50;;;10.80;99.90;;;;;;6128024;23;20134;-85
2021/12/15 11:26:02;;;;;;;80.35;41.53;;;10.80;99.90;;;;;;6126368;23;20160;-85
2021/12/15 11:28:32;;;;;;;81.78;46.97;;;10.90;99.90;;;;;;6127319;23;20154;-86
2021/12/15 11:31:02;;;;;;;79.28;38.97;;;10.90;99.90;;;;;;6129416;23;20143;-86
2021/12/15 11:33:48;;;;;;;84.35;53.78;;;10.90;99.90;;;;;;6129283;23;20150;-86
2021/12/15 11:36:54;;;;;;;80.38;40.80;;;10.90;99.90;;;;;;6128648;23;20599;-85
2021/12/15 11:40:15;;;;;;;85.80;54.35;;;10.90;99.90;;;;;;6014963;23;20148;-85
2021/12/15 11:42:24;;;;;;;83.85;50.35;;;10.90;99.90;;;;;;6138466;23;20143;-85
2021/12/15 11:45:04;;;;;;;80.93;44.78;;;10.80;99.90;;;;;;6126047;23;20239;-84
2021/12/15 11:47:33;;;;;;;80.95;43.40;;;10.70;99.90;;;;;;6125574;23;20174;-85
2021/12/15 11:50:12;;;;;;;89.68;59.72;;;10.80;99.90;;;;;;6127915;23;20535;-84
2021/12/15 11:52:48;;;;;;;84.40;54.20;;;10.80;99.90;;;;;;6127565;23;20138;-85
2021/12/15 11:55:29;;;;;;;89.40;55.80;;;10.90;99.90;;;;;;6127928;23;20138;-83
2021/12/15 11:57:57;;;;;;;81.75;48.38;;;10.90;99.90;;;;;;6127865;23;20592;-84
2021/12/15 12:00:27;;;;;;;77.72;36.63;;;10.80;99.90;;;;;;6127116;23;20610;-84
2021/12/15 12:02:58;;;;;;;79.57;40.72;;;10.80;99.90;;;;;;6127832;23;20181;-83
2021/12/15 12:05:40;;;;;;;86.88;62.60;;;10.80;99.90;;;;;;6126914;23;20178;-84
2021/12/15 12:08:14;;;;;;;82.80;50.13;;;10.90;99.90;;;;;;6101297;23;20166;-84
2021/12/15 12:11:06;;;;;;;86.20;58.35;;;10.90;99.90;;;;;;6125725;23;20147;-84
2021/12/15 12:13:40;;;;;;;87.45;63.47;;;10.90;99.90;;;;;;6127737;23;20210;-84
2021/12/15 12:16:16;;;;;;;84.82;55.00;;;11.00;99.90;;;;;;6103383;23;20236;-84
2021/12/15 12:18:42;;;;;;;82.60;51.55;;;10.90;99.90;;;;;;6100979;23;20146;-83
2021/12/15 12:21:09;;;;;;;84.78;55.38;;;10.90;99.90;;;;;;6126815;23;20220;-84
2021/12/15 12:23:44;;;;;;;82.05;45.33;;;10.90;99.90;;;;;;6127528;23;20131;-84
2021/12/15 12:26:10;;;;;;;77.45;32.97;;;10.90;99.90;;;;;;6127413;23;20492;-84
2021/12/15 12:28:40;;;;;;;77.80;33.70;;;10.90;99.90;;;;;;6126998;23;20147;-84
2021/12/15 12:31:16;;;;;;;78.32;31.00;;;10.90;99.90;;;;;;6126737;23;20222;-84
2021/12/15 12:33:49;;;;;;;76.28;30.33;;;10.90;99.90;;;;;;6127598;23;20161;-84
2021/12/15 12:36:27;;;;;;;75.78;28.48;;;10.90;99.90;;;;;;6127059;23;20170;-84
2021/12/15 12:39:05;;;;;;;77.15;26.75;;;10.80;99.90;;;;;;6125945;23;20135;-84
2021/12/15 12:41:45;;;;;;;74.05;24.55;;;10.90;99.90;;;;;;6127580;23;20134;-84
2021/12/15 12:44:13;;;;;;;76.45;31.30;;;10.90;99.90;;;;;;6127450;23;20214;-84
2021/12/15 12:47:18;;;;;;;74.80;26.25;;;10.80;99.90;;;;;;6125497;23;20632;-84
2021/12/15 12:50:02;;;;;;;76.32;27.92;;;10.90;99.90;;;;;;6127089;23;20142;-84
2021/12/15 13:01:14;;;;;;;74.95;24.20;;;10.80;99.90;;;;;;6136923;23;20141;-84
2021/12/15 13:04:12;;;;;;;75.05;24.95;;;10.90;99.90;;;;;;6127237;23;20119;-84
2021/12/15 13:06:54;;;;;;;76.40;30.05;;;10.80;99.90;;;;;;6126662;23;20174;-85
2021/12/15 13:09:41;;;;;;;76.72;29.67;;;10.80;99.90;;;;;;6123740;23;20160;-84
2021/12/15 13:12:27;;;;;;;75.60;26.15;;;10.80;99.90;;;;;;6128528;23;20189;-84
2021/12/15 13:15:07;;;;;;;76.07;27.52;;;10.80;99.90;;;;;;6127795;23;20150;-84
2021/12/15 13:18:03;;;;;;;77.70;30.48;;;10.90;99.90;;;;;;6126245;23;20525;-84
2021/12/15 13:21:14;;;;;;;76.93;29.50;;;10.90;99.90;;;;;;6127772;23;20147;-84
2021/12/15 13:24:07;;;;;;;80.68;29.83;;;10.90;99.90;;;;;;6127194;23;20143;-84
2021/12/15 13:30:02;;;;;;;79.03;33.58;;;11.00;99.90;;;;;;6124628;23;20165;-83
2021/12/15 13:32:50;;;;;;;78.53;31.88;;;11.00;99.90;;;;;;6035232;23;20222;-82
2021/12/15 13:36:16;;;;;;;78.78;32.90;;;11.00;99.90;;;;;;6124847;23;20206;-82
2021/12/15 13:39:01;;;;;;;77.03;29.75;;;11.00;99.90;;;;;;6099190;23;20160;-82
2021/12/15 13:47:42;;;;;;;;;;;;;;;;;;;;;
2021/12/15 13:50:23;;;;;;;79.70;36.17;;;11.10;99.90;;;;;;6008248;23;20208;-84
2021/12/15 13:53:29;;;;;;;80.30;33.72;;;11.00;99.90;;;;;;6084079;23;20162;-82
2021/12/15 13:56:27;;;;;;;77.55;29.83;;;11.00;99.90;;;;;;6039249;23;20527;-85
2021/12/15 13:59:18;;;;;;;92.53;43.88;;;11.00;99.90;;;;;;6070107;23;20223;-84
2021/12/15 14:02:10;;;;;;;78.28;33.22;;;11.00;99.90;;;;;;6100422;23;20155;-85
2021/12/15 14:05:02;;;;;;;79.80;32.58;;;11.00;99.90;;;;;;6102026;23;20177;-83
2021/12/15 14:07:39;;;;;;;78.30;29.17;;;11.00;99.90;;;;;;6100645;23;20201;-84
2021/12/15 14:10:17;;;;;;;78.72;33.45;;;11.10;99.90;;;;;;6128099;23;20184;-83
2021/12/15 14:13:15;;;;;;;78.28;30.65;;;11.00;99.90;;;;;;6100332;23;20492;-85
2021/12/15 14:15:54;;;;;;;77.88;28.85;;;11.00;99.90;;;;;;6127647;23;20151;-85
2021/12/15 14:18:52;;;;;;;78.97;30.83;;;11.10;99.90;;;;;;6126475;23;20158;-85
2021/12/15 14:21:23;;;;;;;83.32;40.67;;;11.00;99.90;;;;;;6098378;23;20196;-84
2021/12/15 14:23:53;;;;;;;132.00;119.28;;;10.90;99.90;;;;;;6128759;23;20137;-85
2021/12/15 14:26:34;;;;;;;103.50;90.65;;;10.90;99.90;;;;;;6127164;23;20171;-85
2021/12/15 14:30:00;;;;;;;174.52;159.95;;;10.90;99.90;;;;;;6101982;23;20150;-85
2021/12/15 14:33:25;;;;;;;;;;;;;;;;;;;;;
2021/12/15 14:36:05;;;;;;;142.80;129.50;;;10.80;99.90;;;;;;6065898;23;20654;-85
2021/12/15 14:38:57;;;;;;;177.25;162.65;;;10.80;99.90;;;;;;6100087;23;20241;-86
2021/12/15 14:44:40;;;;;;;;;;;;;;;;;;;;;
2021/12/15 14:47:15;;;;;;;177.90;163.85;;;10.70;99.90;;;;;;6126692;23;20203;-85
2021/12/15 14:49:49;;;;;;;179.32;165.18;;;10.70;99.90;;;;;;6125328;23;20229;-85
2021/12/15 14:52:28;;;;;;;168.63;155.23;;;10.60;99.90;;;;;;6125807;23;20640;-85
2021/12/15 14:55:06;;;;;;;196.18;181.27;;;10.60;99.90;;;;;;6127663;23;20208;-85
2021/12/15 14:57:55;;;;;;;;;;;;;;;;;;;;;
2021/12/15 15:04:35;;;;;;;188.55;173.68;;;10.60;99.90;;;;;;6099946;23;20539;-86
2021/12/15 15:07:37;;;;;;;;;;;;;;;;;;;;;
2021/12/15 15:10:39;;;;;;;124.28;112.20;;;10.60;99.90;;;;;;6126823;23;20209;-84
2021/12/15 15:13:23;;;;;;;145.10;131.77;;;10.60;99.90;;;;;;6099646;23;20157;-86
2021/12/15 15:16:07;;;;;;;147.57;134.30;;;10.60;99.90;;;;;;6101984;23;20177;-84
2021/12/15 15:18:45;;;;;;;169.95;155.57;;;10.50;99.90;;;;;;6099890;23;20159;-86
2021/12/15 15:21:26;;;;;;;148.80;135.52;;;10.50;99.90;;;;;;6101477;23;20225;-86
2021/12/15 15:24:01;;;;;;;153.15;139.82;;;10.50;99.90;;;;;;6101850;23;20131;-84
2021/12/15 15:27:01;;;;;;;166.23;152.02;;;10.50;99.90;;;;;;6125449;23;20662;-84
2021/12/15 15:29:37;;;;;;;162.90;149.02;;;10.50;99.90;;;;;;6063120;23;20151;-85
2021/12/15 15:36:19;;;;;;;143.45;129.88;;;10.50;99.90;;;;;;6077040;23;20524;-85
2021/12/15 15:39:28;;;;;;;140.68;127.40;;;10.40;99.90;;;;;;6103293;23;20551;-85
2021/12/15 15:42:20;;;;;;;145.90;132.27;;;10.40;99.90;;;;;;6100179;23;20194;-85
2021/12/15 15:44:50;;;;;;;171.02;157.07;;;10.40;99.90;;;;;;6100195;23;20142;-85
2021/12/15 15:47:24;;;;;;;166.95;153.20;;;10.40;99.90;;;;;;6100187;23;20179;-85
2021/12/15 15:50:08;;;;;;;173.00;159.13;;;10.40;99.90;;;;;;6124509;23;20234;-85
2021/12/15 15:52:49;;;;;;;152.25;138.93;;;10.30;99.90;;;;;;6126732;23;20139;-85
2021/12/15 15:55:18;;;;;;;179.10;165.00;;;10.30;99.90;;;;;;6126159;23;20151;-85
2021/12/15 15:57:54;;;;;;;147.32;133.88;;;10.30;99.90;;;;;;6126228;23;20221;-85
2021/12/15 16:00:23;;;;;;;161.88;148.15;;;10.20;99.90;;;;;;6126056;23;20206;-84
2021/12/15 16:03:06;;;;;;;152.98;139.15;;;10.20;99.90;;;;;;6100961;23;20157;-85
2021/12/15 16:05:31;;;;;;;148.80;135.38;;;10.20;99.90;;;;;;6126532;23;20457;-86
2021/12/15 16:08:00;;;;;;;149.40;135.80;;;10.20;99.90;;;;;;6124620;23;20152;-85
2021/12/15 16:10:30;;;;;;;164.38;150.80;;;10.20;99.90;;;;;;6125191;23;20195;-84
2021/12/15 16:13:02;;;;;;;182.13;167.35;;;10.30;99.90;;;;;;6100746;23;20150;-84
2021/12/15 16:15:34;;;;;;;170.13;155.68;;;10.30;99.90;;;;;;6125552;23;20192;-84
2021/12/15 16:17:59;;;;;;;176.82;162.65;;;10.20;99.90;;;;;;6100869;23;20182;-84
2021/12/15 16:20:48;;;;;;;193.60;178.77;;;10.30;99.90;;;;;;6125268;23;20147;-84
2021/12/15 16:23:21;;;;;;;199.52;183.65;;;10.30;99.90;;;;;;6127097;23;20907;-84
2021/12/15 16:25:47;;;;;;;181.35;166.88;;;10.20;99.90;;;;;;6126499;23;20680;-84
2021/12/15 16:28:19;;;;;;;199.60;184.60;;;10.20;99.90;;;;;;6100371;23;20150;-84
2021/12/15 16:30:46;;;;;;;185.98;171.65;;;10.20;99.90;;;;;;6125981;23;20434;-85
2021/12/15 16:33:16;;;;;;;193.88;179.13;;;10.20;99.90;;;;;;6125677;23;20484;-84
2021/12/15 16:35:43;;;;;;;195.90;180.55;;;10.20;99.90;;;;;;6123761;23;20174;-84
2021/12/15 16:38:31;;;;;;;185.98;171.52;;;10.20;99.90;;;;;;6125829;23;20217;-84
2021/12/15 16:41:36;;;;;;;177.23;162.88;;;10.30;99.90;;;;;;6124719;23;20151;-84
2021/12/15 16:44:37;;;;;;;145.30;132.35;;;10.30;99.90;;;;;;6125312;23;20139;-85
2021/12/15 16:47:06;;;;;;;170.23;156.25;;;10.30;99.90;;;;;;6102588;23;20170;-84
2021/12/15 16:49:41;;;;;;;159.98;146.18;;;10.30;99.90;;;;;;6123916;23;20151;-84
2021/12/15 16:52:35;;;;;;;183.82;169.60;;;10.20;99.90;;;;;;6125809;23;20134;-84
2021/12/15 16:55:04;;;;;;;183.02;168.65;;;10.10;99.90;;;;;;6096302;23;20158;-84
2021/12/15 16:57:33;;;;;;;184.23;169.77;;;10.10;99.90;;;;;;6099382;23;20701;-84
2021/12/15 17:00:10;;;;;;;183.80;169.35;;;10.10;99.90;;;;;;6126280;23;20138;-84
2021/12/15 17:02:51;;;;;;;165.43;151.35;;;10.00;99.90;;;;;;6126215;23;20147;-85
2021/12/15 17:05:27;;;;;;;187.75;172.68;;;10.00;99.90;;;;;;6124358;23;20139;-84
2021/12/15 17:08:00;;;;;;;198.18;182.93;;;10.10;99.90;;;;;;6126811;23;20131;-85
2021/12/15 17:10:39;;;;;;;175.60;161.60;;;10.10;99.90;;;;;;6126660;23;20141;-85
2021/12/15 17:13:11;;;;;;;167.25;153.35;;;10.10;99.90;;;;;;6126587;23;20133;-85
2021/12/15 17:15:52;;;;;;;167.63;153.70;;;10.20;99.90;;;;;;6125873;23;20127;-84
2021/12/15 17:18:21;;;;;;;185.43;170.70;;;10.10;99.90;;;;;;6101522;23;20205;-85
2021/12/15 17:20:48;;;;;;;177.27;163.07;;;10.10;99.90;;;;;;6099714;23;20229;-85
2021/12/15 17:23:26;;;;;;;174.18;160.15;;;10.10;99.90;;;;;;6099770;23;20232;-84
2021/12/15 17:25:58;;;;;;;179.23;165.07;;;10.10;99.90;;;;;;6126311;23;20633;-85
2021/12/15 17:28:28;;;;;;;166.10;152.35;;;10.10;99.90;;;;;;6126465;23;20484;-85
2021/12/15 17:31:16;;;;;;;196.50;181.38;;;10.10;99.90;;;;;;6125996;23;20143;-84
2021/12/15 17:34:02;;;;;;;156.40;143.10;;;10.10;99.90;;;;;;6126447;23;20142;-85
2021/12/15 17:36:28;;;;;;;145.73;132.43;;;10.10;99.90;;;;;;6124317;23;20181;-84
2021/12/15 17:39:09;;;;;;;144.33;131.30;;;10.00;99.90;;;;;;6125263;23;20143;-84
2021/12/15 17:41:54;;;;;;;144.93;131.55;;;10.10;99.90;;;;;;6125952;23;20130;-84
2021/12/15 17:44:40;;;;;;;152.70;138.80;;;10.10;99.90;;;;;;6126339;23;20449;-86
2021/12/15 17:47:22;;;;;;;151.95;138.43;;;10.10;99.90;;;;;;6125890;23;20171;-85
2021/12/15 17:50:00;;;;;;;170.95;156.30;;;10.10;99.90;;;;;;6126040;23;20135;-85
2021/12/15 17:52:30;;;;;;;161.48;147.27;;;10.10;99.90;;;;;;6126244;23;20131;-85
2021/12/15 17:55:05;;;;;;;153.52;140.18;;;10.10;99.90;;;;;;6097671;23;20181;-84
2021/12/15 17:57:52;;;;;;;173.98;158.80;;;10.10;99.90;;;;;;6125107;23;20397;-84
2021/12/15 18:00:45;;;;;;;211.93;196.40;;;10.10;99.90;;;;;;6126752;23;20150;-84
2021/12/15 18:03:18;;;;;;;196.10;181.00;;;10.10;99.90;;;;;;6126875;23;20181;-84
2021/12/15 18:05:45;;;;;;;163.48;149.50;;;10.00;99.90;;;;;;6127020;23;20186;-84
2021/12/15 18:08:13;;;;;;;158.35;144.75;;;10.00;99.90;;;;;;6126430;23;20222;-84
2021/12/15 18:11:02;;;;;;;164.93;150.57;;;10.10;99.90;;;;;;6124717;23;20488;-84
2021/12/15 18:14:07;;;;;;;132.20;119.15;;;10.00;99.90;;;;;;6124381;23;20139;-84
2021/12/15 18:16:42;;;;;;;106.93;88.65;;;10.10;99.90;;;;;;6127107;23;20166;-85
2021/12/15 18:19:46;;;;;;;118.15;105.70;;;10.10;99.90;;;;;;6125335;23;20151;-84
2021/12/15 18:22:16;;;;;;;141.45;127.55;;;10.00;99.90;;;;;;6013722;23;20176;-85
2021/12/15 18:24:54;;;;;;;184.48;169.45;;;10.00;99.90;;;;;;6126028;23;20483;-85
2021/12/15 18:27:29;;;;;;;175.48;161.15;;;10.00;99.90;;;;;;6119494;22;20200;-83
2021/12/15 18:30:07;;;;;;;173.13;157.48;;;10.00;99.90;;;;;;6152847;22;20518;-83
2021/12/15 18:32:44;;;;;;;179.98;165.40;;;10.00;99.90;;;;;;6154825;22;20162;-84
2021/12/15 18:35:13;;;;;;;185.63;170.38;;;10.10;99.90;;;;;;6130064;23;20476;-84
2021/12/15 18:37:45;;;;;;;175.60;160.70;;;10.10;99.90;;;;;;6155166;23;20170;-84
2021/12/15 18:40:11;;;;;;;168.38;153.95;;;10.10;99.90;;;;;;6155414;23;20560;-84
2021/12/15 18:42:45;;;;;;;154.23;140.13;;;10.20;99.90;;;;;;6154791;23;20471;-84
2021/12/15 18:45:14;;;;;;;178.88;163.45;;;10.20;99.90;;;;;;6129630;23;20145;-84
2021/12/15 18:47:47;;;;;;;179.23;163.98;;;10.20;99.90;;;;;;6154812;23;20225;-84
2021/12/15 18:50:17;;;;;;;170.57;156.00;;;10.20;99.90;;;;;;6155881;23;20134;-84